PWSweather.com
Personal Weather Stations
Station Observations
KMNHACKE9
Hiram Hill, Hiram Twp., Hackensack, MN 56452

Hiram Hill, Hiram Twp.Hackensack, MN 56452

Lat: 46.934228, Lon: -94.585965

Elevation: 1414

Station Type: Rainwise MK-III-LR

Latest ConditionsUpdated 11:01:00 PM CDT Tuesday, Aug 20, 2019
Currently Today's Max Today's Min Today's Average
Temperature 56.4°F13.6°C 75.5°F24.2°C 56.4°F13.6°C 66.8°F19.3°C
Dew Point 55.6°F13.1°C 68.7°F20.4°C 55.6°F13.1°C 63.2°F17.3°C
Winds Calm Calm 4.8 mph -7.7 kmh - - 0.7 mph 1.1 kmh
Wind Gusts -- -- - -
Humidity 97% 100% 68% 89%
Pressure 30.08 in1018.6 mb 30.08 in1018.6 mb 29.84 in1010.5 mb -
Precipitation - 0.16 in4.1 mm - -
Hour Temp Dew Point Humidity Winds Wind Gusts Pressure Precip Precip Rate Daily Precip Total
11:01 PM 56.4°F13.6°C 55.6°F13.1°C 97% Calm Calm -- 30.08 in1018.6 mb 0.00 in0.0 mm 0.00 in0.0 mm 0.16 in4.1 mm
10:55 PM 56.6°F13.7°C 55.8°F13.2°C 97% Calm Calm -- 30.08 in1018.6 mb 0.00 in0.0 mm 0.00 in0.0 mm 0.16 in4.1 mm
10:50 PM 56.7°F13.7°C 55.6°F13.1°C 96% Calm Calm -- 30.08 in1018.6 mb 0.00 in0.0 mm 0.00 in0.0 mm 0.16 in4.1 mm
10:45 PM 56.7°F13.7°C 55.9°F13.3°C 97% Calm Calm -- 30.08 in1018.6 mb 0.00 in0.0 mm 0.00 in0.0 mm 0.16 in4.1 mm
10:40 PM 56.7°F13.7°C 55.6°F13.1°C 96% Calm Calm -- 30.08 in1018.6 mb 0.00 in0.0 mm 0.00 in0.0 mm 0.16 in4.1 mm
10:34 PM 56.7°F13.7°C 55.9°F13.3°C 97% 0.3 mph WNW0.5 kmh WNW -- 30.08 in1018.6 mb 0.00 in0.0 mm 0.00 in0.0 mm 0.16 in4.1 mm
10:28 PM 56.9°F13.8°C 56.1°F13.4°C 97% Calm Calm -- 30.08 in1018.6 mb 0.00 in0.0 mm 0.00 in0.0 mm 0.16 in4.1 mm
10:22 PM 57.0°F13.9°C 56.2°F13.4°C 97% Calm Calm -- 30.08 in1018.6 mb 0.00 in0.0 mm 0.00 in0.0 mm 0.16 in4.1 mm
10:17 PM 57.1°F13.9°C 56.0°F13.3°C 96% Calm Calm -- 30.08 in1018.6 mb 0.00 in0.0 mm 0.00 in0.0 mm 0.16 in4.1 mm
10:12 PM 57.2°F14.0°C 56.1°F13.4°C 96% Calm Calm -- 30.08 in1018.6 mb 0.00 in0.0 mm 0.00 in0.0 mm 0.16 in4.1 mm
10:06 PM 57.3°F14.1°C 56.2°F13.4°C 96% Calm Calm -- 30.07 in1018.3 mb 0.00 in0.0 mm 0.00 in0.0 mm 0.16 in4.1 mm
10:01 PM 57.4°F14.1°C 56.3°F13.5°C 96% Calm Calm -- 30.07 in1018.3 mb 0.00 in0.0 mm 0.00 in0.0 mm 0.16 in4.1 mm
09:55 PM 57.5°F14.2°C 56.4°F13.6°C 96% Calm Calm -- 30.07 in1018.3 mb 0.00 in0.0 mm 0.00 in0.0 mm 0.16 in4.1 mm
09:50 PM 57.6°F14.2°C 55.9°F13.3°C 94% Calm Calm -- 30.07 in1018.3 mb 0.00 in0.0 mm 0.00 in0.0 mm 0.16 in4.1 mm
09:45 PM 57.7°F14.3°C 56.3°F13.5°C 95% Calm Calm -- 30.06 in1017.9 mb 0.00 in0.0 mm 0.00 in0.0 mm 0.16 in4.1 mm
09:39 PM 58.0°F14.4°C 56.3°F13.5°C 94% Calm Calm -- 30.07 in1018.3 mb 0.00 in0.0 mm 0.00 in0.0 mm 0.16 in4.1 mm
09:33 PM 58.2°F14.6°C 56.2°F13.4°C 93% Calm Calm -- 30.06 in1017.9 mb 0.00 in0.0 mm 0.00 in0.0 mm 0.16 in4.1 mm
09:27 PM 58.7°F14.8°C 56.4°F13.6°C 92% Calm Calm -- 30.06 in1017.9 mb 0.00 in0.0 mm 0.00 in0.0 mm 0.16 in4.1 mm
09:21 PM 59.2°F15.1°C 56.9°F13.8°C 92% Calm Calm -- 30.06 in1017.9 mb 0.00 in0.0 mm 0.00 in0.0 mm 0.16 in4.1 mm
09:16 PM 59.7°F15.4°C 57.4°F14.1°C 92% Calm Calm -- 30.06 in1017.9 mb 0.00 in0.0 mm 0.00 in0.0 mm 0.16 in4.1 mm
09:10 PM 60.1°F15.6°C 57.8°F14.3°C 92% Calm Calm -- 30.06 in1017.9 mb 0.00 in0.0 mm 0.00 in0.0 mm 0.16 in4.1 mm
09:05 PM 60.4°F15.8°C 57.5°F14.2°C 90% Calm Calm -- 30.06 in1017.9 mb 0.00 in0.0 mm 0.00 in0.0 mm 0.16 in4.1 mm
08:59 PM 60.7°F15.9°C 58.1°F14.5°C 91% Calm Calm -- 30.06 in1017.9 mb 0.00 in0.0 mm 0.00 in0.0 mm 0.16 in4.1 mm
08:53 PM 61.1°F16.2°C 58.5°F14.7°C 91% Calm Calm -- 30.05 in1017.6 mb 0.00 in0.0 mm 0.00 in0.0 mm 0.16 in4.1 mm
08:47 PM 61.4°F16.3°C 58.7°F14.8°C 91% 0.9 mph WNW1.4 kmh WNW -- 30.05 in1017.6 mb 0.00 in0.0 mm 0.00 in0.0 mm 0.16 in4.1 mm
08:42 PM 61.6°F16.4°C 58.9°F14.9°C 91% 0.4 mph WNW0.6 kmh WNW -- 30.05 in1017.6 mb 0.00 in0.0 mm 0.00 in0.0 mm 0.16 in4.1 mm
08:36 PM 61.9°F16.6°C 59.2°F15.1°C 91% Calm Calm -- 30.04 in1017.3 mb 0.00 in0.0 mm 0.00 in0.0 mm 0.16 in4.1 mm
08:30 PM 62.3°F16.8°C 59.3°F15.2°C 90% Calm Calm -- 30.04 in1017.3 mb 0.00 in0.0 mm 0.00 in0.0 mm 0.16 in4.1 mm
08:25 PM 62.6°F17.0°C 59.3°F15.2°C 89% Calm Calm -- 30.04 in1017.3 mb 0.00 in0.0 mm 0.00 in0.0 mm 0.16 in4.1 mm
08:20 PM 62.9°F17.2°C 59.3°F15.2°C 88% 0.2 mph NW0.3 kmh NW -- 30.04 in1017.3 mb 0.00 in0.0 mm 0.00 in0.0 mm 0.16 in4.1 mm
08:14 PM 63.4°F17.4°C 60.1°F15.6°C 89% Calm Calm -- 30.04 in1017.3 mb 0.00 in0.0 mm 0.00 in0.0 mm 0.16 in4.1 mm
08:08 PM 63.6°F17.6°C 59.7°F15.4°C 87% Calm Calm -- 30.04 in1017.3 mb 0.00 in0.0 mm 0.00 in0.0 mm 0.16 in4.1 mm
08:02 PM 63.9°F17.7°C 60.3°F15.7°C 88% 0.1 mph WNW0.2 kmh WNW -- 30.04 in1017.3 mb 0.00 in0.0 mm 0.00 in0.0 mm 0.16 in4.1 mm
07:57 PM 64.0°F17.8°C 60.0°F15.6°C 87% 0.5 mph WNW0.8 kmh WNW -- 30.04 in1017.3 mb 0.00 in0.0 mm 0.00 in0.0 mm 0.16 in4.1 mm
07:51 PM 64.2°F17.9°C 60.6°F15.9°C 88% Calm Calm -- 30.04 in1017.3 mb 0.00 in0.0 mm 0.00 in0.0 mm 0.16 in4.1 mm
07:45 PM 64.4°F18.0°C 60.8°F16.0°C 88% Calm Calm -- 30.03 in1016.9 mb 0.00 in0.0 mm 0.00 in0.0 mm 0.16 in4.1 mm
07:40 PM 64.5°F18.1°C 60.9°F16.1°C 88% Calm Calm -- 30.03 in1016.9 mb 0.00 in0.0 mm 0.00 in0.0 mm 0.16 in4.1 mm
07:35 PM 64.7°F18.2°C 61.1°F16.2°C 88% Calm Calm -- 30.03 in1016.9 mb 0.00 in0.0 mm 0.00 in0.0 mm 0.16 in4.1 mm
07:29 PM 65.0°F18.3°C 61.0°F16.1°C 87% Calm Calm -- 30.03 in1016.9 mb 0.00 in0.0 mm 0.00 in0.0 mm 0.16 in4.1 mm
07:23 PM 65.2°F18.4°C 60.9°F16.1°C 86% Calm Calm -- 30.03 in1016.9 mb 0.00 in0.0 mm 0.00 in0.0 mm 0.16 in4.1 mm
07:17 PM 65.5°F18.6°C 60.5°F15.8°C 84% Calm Calm -- 30.03 in1016.9 mb 0.00 in0.0 mm 0.00 in0.0 mm 0.16 in4.1 mm
07:11 PM 65.6°F18.7°C 61.0°F16.1°C 85% Calm Calm -- 30.02 in1016.6 mb 0.00 in0.0 mm 0.00 in0.0 mm 0.16 in4.1 mm
07:06 PM 65.9°F18.8°C 61.3°F16.3°C 85% Calm Calm -- 30.02 in1016.6 mb 0.00 in0.0 mm 0.00 in0.0 mm 0.16 in4.1 mm
07:01 PM 66.2°F19.0°C 61.2°F16.2°C 84% Calm Calm -- 30.02 in1016.6 mb 0.00 in0.0 mm 0.00 in0.0 mm 0.16 in4.1 mm
06:55 PM 66.5°F19.2°C 61.2°F16.2°C 83% Calm Calm -- 30.03 in1016.9 mb 0.00 in0.0 mm 0.00 in0.0 mm 0.16 in4.1 mm
06:49 PM 66.7°F19.3°C 61.0°F16.1°C 82% Calm Calm -- 30.03 in1016.9 mb 0.00 in0.0 mm 0.00 in0.0 mm 0.16 in4.1 mm
06:43 PM 67.0°F19.4°C 60.6°F15.9°C 80% Calm Calm -- 30.03 in1016.9 mb 0.00 in0.0 mm 0.00 in0.0 mm 0.16 in4.1 mm
06:37 PM 67.4°F19.7°C 60.7°F15.9°C 79% Calm Calm -- 30.03 in1016.9 mb 0.00 in0.0 mm 0.00 in0.0 mm 0.16 in4.1 mm
06:31 PM 67.9°F19.9°C 60.8°F16.0°C 78% Calm Calm -- 30.02 in1016.6 mb 0.00 in0.0 mm 0.00 in0.0 mm 0.16 in4.1 mm
06:26 PM 68.2°F20.1°C 60.7°F15.9°C 77% 0.4 mph N0.6 kmh N -- 30.02 in1016.6 mb 0.00 in0.0 mm 0.00 in0.0 mm 0.16 in4.1 mm
06:21 PM 68.5°F20.3°C 60.3°F15.7°C 75% Calm Calm -- 30.02 in1016.6 mb 0.00 in0.0 mm 0.00 in0.0 mm 0.16 in4.1 mm
06:15 PM 68.7°F20.4°C 60.4°F15.8°C 75% 1.3 mph NW2.1 kmh NW -- 30.02 in1016.6 mb 0.00 in0.0 mm 0.00 in0.0 mm 0.16 in4.1 mm
06:10 PM 68.7°F20.4°C 60.4°F15.8°C 75% 1.4 mph NNW2.3 kmh NNW -- 30.02 in1016.6 mb 0.00 in0.0 mm 0.00 in0.0 mm 0.16 in4.1 mm
06:04 PM 68.5°F20.3°C 61.0°F16.1°C 77% 0.4 mph NNE0.6 kmh NNE -- 30.02 in1016.6 mb 0.00 in0.0 mm 0.00 in0.0 mm 0.16 in4.1 mm
05:59 PM 68.3°F20.2°C 61.5°F16.4°C 79% 0.8 mph NW1.3 kmh NW -- 30.02 in1016.6 mb 0.00 in0.0 mm 0.00 in0.0 mm 0.16 in4.1 mm
05:53 PM 68.2°F20.1°C 61.4°F16.3°C 79% 1.2 mph NNW1.9 kmh NNW -- 30.02 in1016.6 mb 0.00 in0.0 mm 0.00 in0.0 mm 0.16 in4.1 mm
05:47 PM 67.7°F19.8°C 61.3°F16.3°C 80% 1.2 mph NW1.9 kmh NW -- 30.02 in1016.6 mb 0.00 in0.0 mm 0.00 in0.0 mm 0.16 in4.1 mm
05:42 PM 67.5°F19.7°C 61.5°F16.4°C 81% 0.9 mph NNW1.4 kmh NNW -- 30.02 in1016.6 mb 0.00 in0.0 mm 0.00 in0.0 mm 0.16 in4.1 mm
05:36 PM 67.5°F19.7°C 61.5°F16.4°C 81% 1.0 mph WNW1.6 kmh WNW -- 30.02 in1016.6 mb 0.00 in0.0 mm 0.00 in0.0 mm 0.16 in4.1 mm
05:31 PM 67.7°F19.8°C 61.3°F16.3°C 80% 0.1 mph W0.2 kmh W -- 30.02 in1016.6 mb 0.00 in0.0 mm 0.00 in0.0 mm 0.16 in4.1 mm
05:26 PM 68.2°F20.1°C 61.8°F16.6°C 80% 2.1 mph NW3.4 kmh NW -- 30.02 in1016.6 mb 0.00 in0.0 mm 0.00 in0.0 mm 0.16 in4.1 mm
05:20 PM 69.0°F20.6°C 61.8°F16.6°C 78% Calm Calm -- 30.02 in1016.6 mb 0.00 in0.0 mm 0.00 in0.0 mm 0.16 in4.1 mm
05:14 PM 69.5°F20.8°C 61.6°F16.4°C 76% 2.4 mph WNW3.9 kmh WNW -- 30.02 in1016.6 mb 0.00 in0.0 mm 0.00 in0.0 mm 0.16 in4.1 mm
05:08 PM 69.7°F20.9°C 61.8°F16.6°C 76% 2.0 mph WNW3.2 kmh WNW -- 30.02 in1016.6 mb 0.00 in0.0 mm 0.00 in0.0 mm 0.16 in4.1 mm
05:03 PM 69.9°F21.1°C 62.0°F16.7°C 76% 1.3 mph NW2.1 kmh NW -- 30.02 in1016.6 mb 0.00 in0.0 mm 0.00 in0.0 mm 0.16 in4.1 mm
04:57 PM 69.9°F21.1°C 62.0°F16.7°C 76% 2.6 mph W4.2 kmh W -- 30.02 in1016.6 mb 0.00 in0.0 mm 0.00 in0.0 mm 0.16 in4.1 mm
04:51 PM 69.9°F21.1°C 61.6°F16.4°C 75% 3.7 mph N6.0 kmh N -- 30.02 in1016.6 mb 0.00 in0.0 mm 0.00 in0.0 mm 0.16 in4.1 mm
04:46 PM 70.1°F21.2°C 61.4°F16.3°C 74% 0.8 mph WSW1.3 kmh WSW -- 30.02 in1016.6 mb 0.00 in0.0 mm 0.00 in0.0 mm 0.16 in4.1 mm
04:40 PM 70.6°F21.4°C 62.3°F16.8°C 75% 1.9 mph NW3.1 kmh NW -- 30.02 in1016.6 mb 0.00 in0.0 mm 0.00 in0.0 mm 0.16 in4.1 mm
04:35 PM 70.9°F21.6°C 62.2°F16.8°C 74% 0.5 mph NNW0.8 kmh NNW -- 30.02 in1016.6 mb 0.00 in0.0 mm 0.00 in0.0 mm 0.16 in4.1 mm
04:29 PM 71.5°F21.9°C 62.0°F16.7°C 72% 2.5 mph WNW4.0 kmh WNW -- 30.02 in1016.6 mb 0.00 in0.0 mm 0.00 in0.0 mm 0.16 in4.1 mm
04:24 PM 72.1°F22.3°C 62.6°F17.0°C 72% 1.7 mph NE2.7 kmh NE -- 30.01 in1016.3 mb 0.00 in0.0 mm 0.00 in0.0 mm 0.16 in4.1 mm
04:18 PM 72.9°F22.7°C 63.3°F17.4°C 72% 1.0 mph NE1.6 kmh NE -- 30.02 in1016.6 mb 0.00 in0.0 mm 0.00 in0.0 mm 0.16 in4.1 mm
04:13 PM 73.0°F22.8°C 63.8°F17.7°C 73% 2.0 mph N3.2 kmh N -- 30.02 in1016.6 mb 0.00 in0.0 mm 0.00 in0.0 mm 0.16 in4.1 mm
04:07 PM 72.7°F22.6°C 62.7°F17.1°C 71% 0.8 mph W1.3 kmh W -- 30.02 in1016.6 mb 0.00 in0.0 mm 0.00 in0.0 mm 0.16 in4.1 mm
04:01 PM 72.9°F22.7°C 62.5°F16.9°C 70% 1.0 mph WNW1.6 kmh WNW -- 30.02 in1016.6 mb 0.00 in0.0 mm 0.00 in0.0 mm 0.16 in4.1 mm
03:56 PM 73.3°F22.9°C 63.3°F17.4°C 71% 2.7 mph NNE4.3 kmh NNE -- 30.02 in1016.6 mb 0.00 in0.0 mm 0.00 in0.0 mm 0.16 in4.1 mm
03:50 PM 73.6°F23.1°C 63.2°F17.3°C 70% 0.2 mph S0.3 kmh S -- 30.02 in1016.6 mb 0.00 in0.0 mm 0.00 in0.0 mm 0.16 in4.1 mm
03:45 PM 74.2°F23.4°C 63.8°F17.7°C 70% 2.1 mph WNW3.4 kmh WNW -- 30.02 in1016.6 mb 0.00 in0.0 mm 0.00 in0.0 mm 0.16 in4.1 mm
03:40 PM 74.5°F23.6°C 64.5°F18.1°C 71% 1.1 mph NNE1.8 kmh NNE -- 30.02 in1016.6 mb 0.00 in0.0 mm 0.00 in0.0 mm 0.16 in4.1 mm
03:34 PM 74.6°F23.7°C 64.6°F18.1°C 71% 0.4 mph NW0.6 kmh NW -- 30.02 in1016.6 mb 0.00 in0.0 mm 0.00 in0.0 mm 0.16 in4.1 mm
03:28 PM 75.2°F24.0°C 63.9°F17.7°C 68% 0.6 mph WNW1.0 kmh WNW -- 30.02 in1016.6 mb 0.00 in0.0 mm 0.00 in0.0 mm 0.16 in4.1 mm
03:23 PM 75.5°F24.2°C 64.6°F18.1°C 69% 2.1 mph N3.4 kmh N -- 30.02 in1016.6 mb 0.00 in0.0 mm 0.00 in0.0 mm 0.16 in4.1 mm
03:17 PM 75.3°F24.1°C 64.4°F18.0°C 69% 1.2 mph NW1.9 kmh NW -- 30.01 in1016.3 mb 0.00 in0.0 mm 0.00 in0.0 mm 0.16 in4.1 mm
03:12 PM 75.1°F23.9°C 64.2°F17.9°C 69% 3.7 mph NNW6.0 kmh NNW -- 30.01 in1016.3 mb 0.00 in0.0 mm 0.00 in0.0 mm 0.16 in4.1 mm
03:06 PM 75.0°F23.9°C 64.9°F18.3°C 71% 1.9 mph NNW3.1 kmh NNW -- 30.01 in1016.3 mb 0.00 in0.0 mm 0.00 in0.0 mm 0.16 in4.1 mm
03:01 PM 74.8°F23.8°C 65.2°F18.4°C 72% 1.0 mph W1.6 kmh W -- 30.02 in1016.6 mb 0.00 in0.0 mm 0.00 in0.0 mm 0.16 in4.1 mm
02:55 PM 74.5°F23.6°C 65.3°F18.5°C 73% 1.8 mph NW2.9 kmh NW -- 30.01 in1016.3 mb 0.00 in0.0 mm 0.00 in0.0 mm 0.16 in4.1 mm
02:49 PM 74.5°F23.6°C 65.3°F18.5°C 73% 1.6 mph NW2.6 kmh NW -- 30.01 in1016.3 mb 0.00 in0.0 mm 0.00 in0.0 mm 0.16 in4.1 mm
02:43 PM 74.9°F23.8°C 66.4°F19.1°C 75% 2.9 mph NNE4.7 kmh NNE -- 30.01 in1016.3 mb 0.00 in0.0 mm 0.00 in0.0 mm 0.16 in4.1 mm
02:38 PM 74.9°F23.8°C 66.0°F18.9°C 74% 0.7 mph NNW1.1 kmh NNW -- 30.01 in1016.3 mb 0.00 in0.0 mm 0.00 in0.0 mm 0.16 in4.1 mm
02:33 PM 74.3°F23.5°C 66.6°F19.2°C 77% 2.3 mph NW3.7 kmh NW -- 30.01 in1016.3 mb 0.00 in0.0 mm 0.00 in0.0 mm 0.16 in4.1 mm
02:27 PM 73.6°F23.1°C 65.9°F18.8°C 77% 0.4 mph NE0.6 kmh NE -- 30.01 in1016.3 mb 0.00 in0.0 mm 0.00 in0.0 mm 0.16 in4.1 mm
02:22 PM 74.2°F23.4°C 66.5°F19.2°C 77% 0.6 mph WNW1.0 kmh WNW -- 30.01 in1016.3 mb 0.00 in0.0 mm 0.00 in0.0 mm 0.16 in4.1 mm
02:16 PM 75.2°F24.0°C 67.5°F19.7°C 77% 0.2 mph NNE0.3 kmh NNE -- 30.01 in1016.3 mb 0.00 in0.0 mm 0.00 in0.0 mm 0.16 in4.1 mm
02:10 PM 74.6°F23.7°C 67.3°F19.6°C 78% 0.1 mph NW0.2 kmh NW -- 30.00 in1015.9 mb 0.00 in0.0 mm 0.00 in0.0 mm 0.16 in4.1 mm
02:05 PM 73.8°F23.2°C 66.9°F19.4°C 79% Calm Calm -- 30.00 in1015.9 mb 0.00 in0.0 mm 0.00 in0.0 mm 0.16 in4.1 mm
01:59 PM 73.9°F23.3°C 67.0°F19.4°C 79% 0.3 mph WNW0.5 kmh WNW -- 30.00 in1015.9 mb 0.00 in0.0 mm 0.00 in0.0 mm 0.16 in4.1 mm
01:54 PM 74.3°F23.5°C 67.0°F19.4°C 78% 1.4 mph NW2.3 kmh NW -- 30.00 in1015.9 mb 0.00 in0.0 mm 0.00 in0.0 mm 0.16 in4.1 mm
01:48 PM 74.8°F23.8°C 67.5°F19.7°C 78% 2.0 mph W3.2 kmh W -- 30.00 in1015.9 mb 0.00 in0.0 mm 0.00 in0.0 mm 0.16 in4.1 mm
01:43 PM 74.8°F23.8°C 67.5°F19.7°C 78% 0.8 mph SW1.3 kmh SW -- 30.00 in1015.9 mb 0.00 in0.0 mm 0.00 in0.0 mm 0.16 in4.1 mm
01:37 PM 74.4°F23.6°C 68.2°F20.1°C 81% Calm Calm -- 30.00 in1015.9 mb 0.00 in0.0 mm 0.00 in0.0 mm 0.16 in4.1 mm
01:31 PM 73.9°F23.3°C 67.7°F19.8°C 81% Calm Calm -- 29.99 in1015.6 mb 0.00 in0.0 mm 0.00 in0.0 mm 0.16 in4.1 mm
01:26 PM 74.2°F23.4°C 67.6°F19.8°C 80% Calm Calm -- 29.99 in1015.6 mb 0.00 in0.0 mm 0.00 in0.0 mm 0.16 in4.1 mm
01:21 PM 74.4°F23.6°C 67.8°F19.9°C 80% 1.8 mph NW2.9 kmh NW -- 29.99 in1015.6 mb 0.00 in0.0 mm 0.00 in0.0 mm 0.16 in4.1 mm
01:15 PM 73.9°F23.3°C 68.0°F20.0°C 82% 0.9 mph NNW1.4 kmh NNW -- 29.99 in1015.6 mb 0.00 in0.0 mm 0.00 in0.0 mm 0.16 in4.1 mm
01:10 PM 73.3°F22.9°C 67.8°F19.9°C 83% Calm Calm -- 29.99 in1015.6 mb 0.00 in0.0 mm 0.00 in0.0 mm 0.16 in4.1 mm
01:04 PM 72.6°F22.6°C 67.5°F19.7°C 84% Calm Calm -- 29.99 in1015.6 mb 0.00 in0.0 mm 0.00 in0.0 mm 0.16 in4.1 mm
12:58 PM 72.2°F22.3°C 67.4°F19.7°C 85% 0.2 mph WNW0.3 kmh WNW -- 30.00 in1015.9 mb 0.00 in0.0 mm 0.00 in0.0 mm 0.16 in4.1 mm
12:53 PM 71.9°F22.2°C 67.8°F19.9°C 87% 0.2 mph NW0.3 kmh NW -- 29.99 in1015.6 mb 0.00 in0.0 mm 0.00 in0.0 mm 0.16 in4.1 mm
12:47 PM 71.1°F21.7°C 67.4°F19.7°C 88% 0.2 mph NNW0.3 kmh NNW -- 29.99 in1015.6 mb 0.00 in0.0 mm 0.00 in0.0 mm 0.16 in4.1 mm
12:42 PM 70.5°F21.4°C 67.1°F19.5°C 89% 0.4 mph WNW0.6 kmh WNW -- 29.99 in1015.6 mb 0.00 in0.0 mm 0.00 in0.0 mm 0.16 in4.1 mm
12:37 PM 70.0°F21.1°C 66.6°F19.2°C 89% Calm Calm -- 29.99 in1015.6 mb 0.00 in0.0 mm 0.00 in0.0 mm 0.16 in4.1 mm
12:31 PM 69.9°F21.1°C 66.2°F19.0°C 88% 0.1 mph NNW0.2 kmh NNW -- 29.99 in1015.6 mb 0.00 in0.0 mm 0.00 in0.0 mm 0.16 in4.1 mm
12:26 PM 69.7°F20.9°C 66.0°F18.9°C 88% 1.5 mph NW2.4 kmh NW -- 29.99 in1015.6 mb 0.00 in0.0 mm 0.00 in0.0 mm 0.16 in4.1 mm
12:20 PM 69.7°F20.9°C 66.0°F18.9°C 88% 0.6 mph WNW1.0 kmh WNW -- 29.99 in1015.6 mb 0.00 in0.0 mm 0.00 in0.0 mm 0.16 in4.1 mm
12:14 PM 69.7°F20.9°C 65.7°F18.7°C 87% Calm Calm -- 29.98 in1015.2 mb 0.00 in0.0 mm 0.00 in0.0 mm 0.16 in4.1 mm
12:08 PM 70.3°F21.3°C 66.2°F19.0°C 87% 0.4 mph NNW0.6 kmh NNW -- 29.98 in1015.2 mb 0.00 in0.0 mm 0.00 in0.0 mm 0.16 in4.1 mm
12:03 PM 70.9°F21.6°C 66.5°F19.2°C 86% 1.6 mph W2.6 kmh W -- 29.98 in1015.2 mb 0.00 in0.0 mm 0.00 in0.0 mm 0.16 in4.1 mm
11:58 AM 71.5°F21.9°C 66.7°F19.3°C 85% 0.2 mph NNW0.3 kmh NNW -- 29.98 in1015.2 mb 0.00 in0.0 mm 0.00 in0.0 mm 0.16 in4.1 mm
11:52 AM 72.5°F22.5°C 67.4°F19.7°C 84% 0.1 mph NNW0.2 kmh NNW -- 29.98 in1015.2 mb 0.00 in0.0 mm 0.00 in0.0 mm 0.16 in4.1 mm
11:46 AM 73.0°F22.8°C 67.5°F19.7°C 83% Calm Calm -- 29.98 in1015.2 mb 0.00 in0.0 mm 0.00 in0.0 mm 0.16 in4.1 mm
11:41 AM 73.3°F22.9°C 67.5°F19.7°C 82% Calm Calm -- 29.98 in1015.2 mb 0.00 in0.0 mm 0.00 in0.0 mm 0.16 in4.1 mm
11:36 AM 73.7°F23.2°C 67.9°F19.9°C 82% 0.4 mph WNW0.6 kmh WNW -- 29.97 in1014.9 mb 0.00 in0.0 mm 0.00 in0.0 mm 0.16 in4.1 mm
11:30 AM 74.1°F23.4°C 67.9°F19.9°C 81% Calm Calm -- 29.98 in1015.2 mb 0.00 in0.0 mm 0.00 in0.0 mm 0.16 in4.1 mm
11:24 AM 74.5°F23.6°C 68.3°F20.2°C 81% 0.4 mph NNW0.6 kmh NNW -- 29.97 in1014.9 mb 0.00 in0.0 mm 0.00 in0.0 mm 0.16 in4.1 mm
11:19 AM 74.2°F23.4°C 68.7°F20.4°C 83% Calm Calm -- 29.96 in1014.6 mb 0.00 in0.0 mm 0.00 in0.0 mm 0.16 in4.1 mm
11:13 AM 73.3°F22.9°C 68.2°F20.1°C 84% 0.1 mph WNW0.2 kmh WNW -- 29.95 in1014.2 mb 0.00 in0.0 mm 0.00 in0.0 mm 0.16 in4.1 mm
11:08 AM 72.3°F22.4°C 67.2°F19.6°C 84% 0.5 mph WSW0.8 kmh WSW -- 29.95 in1014.2 mb 0.00 in0.0 mm 0.00 in0.0 mm 0.16 in4.1 mm
11:03 AM 71.9°F22.2°C 67.1°F19.5°C 85% Calm Calm -- 29.96 in1014.6 mb 0.00 in0.0 mm 0.00 in0.0 mm 0.16 in4.1 mm
10:58 AM 72.0°F22.2°C 67.2°F19.6°C 85% Calm Calm -- 29.95 in1014.2 mb 0.00 in0.0 mm 0.00 in0.0 mm 0.16 in4.1 mm
10:52 AM 72.5°F22.5°C 67.7°F19.8°C 85% 0.2 mph WNW0.3 kmh WNW -- 29.95 in1014.2 mb 0.00 in0.0 mm 0.00 in0.0 mm 0.16 in4.1 mm
10:46 AM 72.1°F22.3°C 68.0°F20.0°C 87% Calm Calm -- 29.96 in1014.6 mb 0.00 in0.0 mm 0.00 in0.0 mm 0.16 in4.1 mm
10:41 AM 71.4°F21.9°C 67.3°F19.6°C 87% 1.0 mph S1.6 kmh S -- 29.95 in1014.2 mb 0.00 in0.0 mm 0.00 in0.0 mm 0.16 in4.1 mm
10:35 AM 70.7°F21.5°C 67.0°F19.4°C 88% Calm Calm -- 29.95 in1014.2 mb 0.00 in0.0 mm 0.00 in0.0 mm 0.16 in4.1 mm
10:29 AM 69.8°F21.0°C 66.7°F19.3°C 90% 0.1 mph SSW0.2 kmh SSW -- 29.96 in1014.6 mb 0.00 in0.0 mm 0.00 in0.0 mm 0.16 in4.1 mm
10:24 AM 69.0°F20.6°C 65.6°F18.7°C 89% Calm Calm -- 29.96 in1014.6 mb 0.00 in0.0 mm 0.00 in0.0 mm 0.16 in4.1 mm
10:19 AM 69.0°F20.6°C 65.9°F18.8°C 90% 1.9 mph SSW3.1 kmh SSW -- 29.95 in1014.2 mb 0.00 in0.0 mm 0.00 in0.0 mm 0.16 in4.1 mm
10:13 AM 69.6°F20.9°C 66.9°F19.4°C 91% Calm Calm -- 29.96 in1014.6 mb 0.00 in0.0 mm 0.00 in0.0 mm 0.16 in4.1 mm
10:07 AM 69.9°F21.1°C 67.5°F19.7°C 92% Calm Calm -- 29.96 in1014.6 mb 0.00 in0.0 mm 0.00 in0.0 mm 0.16 in4.1 mm
10:01 AM 69.5°F20.8°C 67.4°F19.7°C 93% Calm Calm -- 29.96 in1014.6 mb 0.00 in0.0 mm 0.00 in0.0 mm 0.16 in4.1 mm
09:55 AM 68.7°F20.4°C 67.2°F19.6°C 95% Calm Calm -- 29.95 in1014.2 mb 0.00 in0.0 mm 0.00 in0.0 mm 0.16 in4.1 mm
09:49 AM 68.0°F20.0°C 66.2°F19.0°C 94% Calm Calm -- 29.94 in1013.9 mb 0.00 in0.0 mm 0.00 in0.0 mm 0.16 in4.1 mm
09:44 AM 67.4°F19.7°C 66.2°F19.0°C 96% 0.3 mph NW0.5 kmh NW -- 29.94 in1013.9 mb 0.00 in0.0 mm 0.00 in0.0 mm 0.16 in4.1 mm
09:38 AM 66.7°F19.3°C 65.8°F18.8°C 97% Calm Calm -- 29.94 in1013.9 mb 0.00 in0.0 mm 0.00 in0.0 mm 0.16 in4.1 mm
09:33 AM 66.2°F19.0°C 65.9°F18.8°C 99% Calm Calm -- 29.94 in1013.9 mb 0.00 in0.0 mm 0.00 in0.0 mm 0.16 in4.1 mm
09:27 AM 65.4°F18.6°C 65.1°F18.4°C 99% Calm Calm -- 29.94 in1013.9 mb 0.00 in0.0 mm 0.00 in0.0 mm 0.16 in4.1 mm
09:22 AM 64.7°F18.2°C 64.7°F18.2°C 100% Calm Calm -- 29.94 in1013.9 mb 0.00 in0.0 mm 0.00 in0.0 mm 0.16 in4.1 mm
09:16 AM 64.0°F17.8°C 64.0°F17.8°C 100% 0.1 mph NW0.2 kmh NW -- 29.94 in1013.9 mb 0.00 in0.0 mm 0.00 in0.0 mm 0.16 in4.1 mm
09:11 AM 63.5°F17.5°C 63.5°F17.5°C 100% Calm Calm -- 29.93 in1013.5 mb 0.00 in0.0 mm 0.00 in0.0 mm 0.16 in4.1 mm
09:06 AM 63.1°F17.3°C 63.1°F17.3°C 100% 0.2 mph WNW0.3 kmh WNW -- 29.94 in1013.9 mb 0.00 in0.0 mm 0.00 in0.0 mm 0.16 in4.1 mm
09:00 AM 62.6°F17.0°C 62.6°F17.0°C 100% Calm Calm -- 29.93 in1013.5 mb 0.00 in0.0 mm 0.00 in0.0 mm 0.16 in4.1 mm
08:54 AM 62.0°F16.7°C 62.0°F16.7°C 100% Calm Calm -- 29.93 in1013.5 mb 0.00 in0.0 mm 0.00 in0.0 mm 0.16 in4.1 mm
08:49 AM 61.7°F16.5°C 61.7°F16.5°C 100% Calm Calm -- 29.92 in1013.2 mb 0.00 in0.0 mm 0.00 in0.0 mm 0.16 in4.1 mm
08:43 AM 61.3°F16.3°C 61.3°F16.3°C 100% Calm Calm -- 29.91 in1012.9 mb 0.00 in0.0 mm 0.00 in0.0 mm 0.16 in4.1 mm
08:37 AM 61.2°F16.2°C 60.9°F16.1°C 99% Calm Calm -- 29.90 in1012.5 mb 0.00 in0.0 mm 0.00 in0.0 mm 0.16 in4.1 mm
08:31 AM 61.2°F16.2°C 60.9°F16.1°C 99% 0.8 mph SSW1.3 kmh SSW -- 29.89 in1012.2 mb 0.00 in0.0 mm 0.00 in0.0 mm 0.16 in4.1 mm
08:26 AM 61.2°F16.2°C 60.9°F16.1°C 99% 2.0 mph S3.2 kmh S -- 29.89 in1012.2 mb 0.00 in0.0 mm 0.00 in0.0 mm 0.16 in4.1 mm
08:20 AM 61.4°F16.3°C 61.1°F16.2°C 99% 0.7 mph S1.1 kmh S -- 29.89 in1012.2 mb 0.00 in0.0 mm 0.00 in0.0 mm 0.16 in4.1 mm
08:14 AM 61.4°F16.3°C 61.1°F16.2°C 99% 2.1 mph SSW3.4 kmh SSW -- 29.89 in1012.2 mb 0.00 in0.0 mm 0.00 in0.0 mm 0.16 in4.1 mm
08:09 AM 61.5°F16.4°C 61.2°F16.2°C 99% Calm Calm -- 29.89 in1012.2 mb 0.00 in0.0 mm 0.00 in0.0 mm 0.16 in4.1 mm
08:03 AM 61.6°F16.4°C 61.0°F16.1°C 98% Calm Calm -- 29.89 in1012.2 mb 0.00 in0.0 mm 0.00 in0.0 mm 0.16 in4.1 mm
07:57 AM 61.7°F16.5°C 61.1°F16.2°C 98% 0.3 mph NNE0.5 kmh NNE -- 29.89 in1012.2 mb 0.00 in0.0 mm 0.00 in0.0 mm 0.16 in4.1 mm
07:52 AM 61.7°F16.5°C 61.1°F16.2°C 98% Calm Calm -- 29.89 in1012.2 mb 0.00 in0.0 mm 0.00 in0.0 mm 0.16 in4.1 mm
07:46 AM 61.9°F16.6°C 61.6°F16.4°C 99% Calm Calm -- 29.90 in1012.5 mb 0.00 in0.0 mm 0.00 in0.0 mm 0.16 in4.1 mm
07:41 AM 61.9°F16.6°C 61.6°F16.4°C 99% 1.2 mph SSE1.9 kmh SSE -- 29.89 in1012.2 mb 0.00 in0.0 mm 0.00 in0.0 mm 0.16 in4.1 mm
07:35 AM 61.7°F16.5°C 61.4°F16.3°C 99% 3.3 mph SSW5.3 kmh SSW -- 29.90 in1012.5 mb 0.00 in0.0 mm 0.00 in0.0 mm 0.16 in4.1 mm
07:30 AM 61.9°F16.6°C 61.6°F16.4°C 99% 4.4 mph S7.1 kmh S -- 29.88 in1011.9 mb 0.00 in0.0 mm 0.00 in0.0 mm 0.16 in4.1 mm
07:24 AM 62.1°F16.7°C 61.8°F16.6°C 99% 0.9 mph SSE1.4 kmh SSE -- 29.86 in1011.2 mb 0.00 in0.0 mm 0.00 in0.0 mm 0.16 in4.1 mm
07:18 AM 62.2°F16.8°C 61.9°F16.6°C 99% 0.4 mph W0.6 kmh W -- 29.90 in1012.5 mb 0.00 in0.0 mm 0.00 in0.0 mm 0.16 in4.1 mm
07:12 AM 62.4°F16.9°C 61.8°F16.6°C 98% 4.8 mph SSE7.7 kmh SSE -- 29.92 in1013.2 mb 0.00 in0.0 mm 0.00 in0.0 mm 0.15 in3.8 mm
07:07 AM 62.5°F16.9°C 61.9°F16.6°C 98% Calm Calm -- 29.92 in1013.2 mb 0.00 in0.0 mm 0.00 in0.0 mm 0.14 in3.6 mm
07:02 AM 62.6°F17.0°C 62.0°F16.7°C 98% 0.6 mph WSW1.0 kmh WSW -- 29.90 in1012.5 mb 0.00 in0.0 mm 0.00 in0.0 mm 0.14 in3.6 mm
06:56 AM 62.8°F17.1°C 62.2°F16.8°C 98% 2.7 mph S4.3 kmh S -- 29.90 in1012.5 mb 0.00 in0.0 mm 0.00 in0.0 mm 0.14 in3.6 mm
06:51 AM 63.1°F17.3°C 62.5°F16.9°C 98% 2.0 mph SSW3.2 kmh SSW -- 29.90 in1012.5 mb 0.00 in0.0 mm 0.00 in0.0 mm 0.14 in3.6 mm
06:46 AM 63.2°F17.3°C 62.3°F16.8°C 97% 0.4 mph SE0.6 kmh SE -- 29.91 in1012.9 mb 0.00 in0.0 mm 0.00 in0.0 mm 0.14 in3.6 mm
06:40 AM 63.5°F17.5°C 62.9°F17.2°C 98% 2.7 mph SSW4.3 kmh SSW -- 29.90 in1012.5 mb 0.00 in0.0 mm 0.00 in0.0 mm 0.14 in3.6 mm
06:35 AM 63.7°F17.6°C 63.1°F17.3°C 98% Calm Calm -- 29.90 in1012.5 mb 0.00 in0.0 mm 0.00 in0.0 mm 0.14 in3.6 mm
06:30 AM 63.9°F17.7°C 63.0°F17.2°C 97% 1.1 mph SSW1.8 kmh SSW -- 29.90 in1012.5 mb 0.00 in0.0 mm 0.00 in0.0 mm 0.14 in3.6 mm
06:24 AM 64.2°F17.9°C 63.0°F17.2°C 96% 0.5 mph SE0.8 kmh SE -- 29.91 in1012.9 mb 0.00 in0.0 mm 0.00 in0.0 mm 0.12 in3.0 mm
06:18 AM 64.6°F18.1°C 63.4°F17.4°C 96% Calm Calm -- 29.90 in1012.5 mb 0.00 in0.0 mm 0.00 in0.0 mm 0.12 in3.0 mm
06:12 AM 65.4°F18.6°C 64.2°F17.9°C 96% 1.3 mph SW2.1 kmh SW -- 29.90 in1012.5 mb 0.00 in0.0 mm 0.00 in0.0 mm 0.11 in2.8 mm
06:06 AM 66.2°F19.0°C 65.3°F18.5°C 97% 0.1 mph SW0.2 kmh SW -- 29.92 in1013.2 mb 0.00 in0.0 mm 0.00 in0.0 mm 0.10 in2.5 mm
06:00 AM 66.4°F19.1°C 65.8°F18.8°C 98% 2.7 mph WSW4.3 kmh WSW -- 29.94 in1013.9 mb 0.00 in0.0 mm 0.00 in0.0 mm 0.03 in0.8 mm
05:55 AM 66.4°F19.1°C 65.8°F18.8°C 98% 3.8 mph SW6.1 kmh SW -- 29.87 in1011.5 mb 0.00 in0.0 mm 0.00 in0.0 mm 0.01 in0.3 mm
05:49 AM 66.5°F19.2°C 65.3°F18.5°C 96% 3.1 mph SSE5.0 kmh SSE -- 29.87 in1011.5 mb 0.00 in0.0 mm 0.00 in0.0 mm 0.00 in0.0 mm
05:43 AM 66.7°F19.3°C 65.8°F18.8°C 97% 2.8 mph S4.5 kmh S -- 29.86 in1011.2 mb 0.00 in0.0 mm 0.00 in0.0 mm 0.00 in0.0 mm
05:37 AM 66.7°F19.3°C 65.8°F18.8°C 97% 0.3 mph S0.5 kmh S -- 29.88 in1011.9 mb 0.00 in0.0 mm 0.00 in0.0 mm 0.00 in0.0 mm
05:31 AM 66.7°F19.3°C 65.8°F18.8°C 97% 0.8 mph SSE1.3 kmh SSE -- 29.88 in1011.9 mb 0.00 in0.0 mm 0.00 in0.0 mm 0.00 in0.0 mm
05:26 AM 66.5°F19.2°C 65.9°F18.8°C 98% 0.8 mph S1.3 kmh S -- 29.88 in1011.9 mb 0.00 in0.0 mm 0.00 in0.0 mm 0.00 in0.0 mm
05:20 AM 66.2°F19.0°C 65.6°F18.7°C 98% 0.4 mph SW0.6 kmh SW -- 29.88 in1011.9 mb 0.00 in0.0 mm 0.00 in0.0 mm 0.00 in0.0 mm
05:15 AM 65.8°F18.8°C 65.2°F18.4°C 98% 0.3 mph SSW0.5 kmh SSW -- 29.88 in1011.9 mb 0.00 in0.0 mm 0.00 in0.0 mm 0.00 in0.0 mm
05:09 AM 65.3°F18.5°C 65.0°F18.3°C 99% 1.5 mph S2.4 kmh S -- 29.86 in1011.2 mb 0.00 in0.0 mm 0.00 in0.0 mm 0.00 in0.0 mm
05:03 AM 65.1°F18.4°C 64.8°F18.2°C 99% Calm Calm -- 29.86 in1011.2 mb 0.00 in0.0 mm 0.00 in0.0 mm 0.00 in0.0 mm
04:58 AM 65.2°F18.4°C 64.9°F18.3°C 99% 1.3 mph S2.1 kmh S -- 29.84 in1010.5 mb 0.00 in0.0 mm 0.00 in0.0 mm 0.00 in0.0 mm
04:52 AM 64.9°F18.3°C 64.6°F18.1°C 99% Calm Calm -- 29.85 in1010.8 mb 0.00 in0.0 mm 0.00 in0.0 mm 0.00 in0.0 mm
04:46 AM 64.7°F18.2°C 64.1°F17.8°C 98% 0.7 mph S1.1 kmh S -- 29.86 in1011.2 mb 0.00 in0.0 mm 0.00 in0.0 mm 0.00 in0.0 mm
04:40 AM 64.5°F18.1°C 64.2°F17.9°C 99% Calm Calm -- 29.87 in1011.5 mb 0.00 in0.0 mm 0.00 in0.0 mm 0.00 in0.0 mm
04:35 AM 64.4°F18.0°C 64.1°F17.8°C 99% 0.4 mph SSE0.6 kmh SSE -- 29.87 in1011.5 mb 0.00 in0.0 mm 0.00 in0.0 mm 0.00 in0.0 mm
04:30 AM 64.4°F18.0°C 64.1°F17.8°C 99% 1.1 mph ESE1.8 kmh ESE -- 29.88 in1011.9 mb 0.00 in0.0 mm 0.00 in0.0 mm 0.00 in0.0 mm
04:25 AM 64.2°F17.9°C 63.9°F17.7°C 99% 0.1 mph S0.2 kmh S -- 29.88 in1011.9 mb 0.00 in0.0 mm 0.00 in0.0 mm 0.00 in0.0 mm
04:19 AM 64.0°F17.8°C 63.7°F17.6°C 99% 1.3 mph S2.1 kmh S -- 29.89 in1012.2 mb 0.00 in0.0 mm 0.00 in0.0 mm 0.00 in0.0 mm
04:13 AM 64.0°F17.8°C 63.4°F17.4°C 98% 1.3 mph SSE2.1 kmh SSE -- 29.89 in1012.2 mb 0.00 in0.0 mm 0.00 in0.0 mm 0.00 in0.0 mm
04:07 AM 64.0°F17.8°C 63.4°F17.4°C 98% 1.0 mph SSE1.6 kmh SSE -- 29.89 in1012.2 mb 0.00 in0.0 mm 0.00 in0.0 mm 0.00 in0.0 mm
04:01 AM 64.0°F17.8°C 63.4°F17.4°C 98% 0.5 mph SSW0.8 kmh SSW -- 29.89 in1012.2 mb 0.00 in0.0 mm 0.00 in0.0 mm 0.00 in0.0 mm
03:56 AM 64.0°F17.8°C 63.4°F17.4°C 98% Calm Calm -- 29.90 in1012.5 mb 0.00 in0.0 mm 0.00 in0.0 mm 0.00 in0.0 mm
03:50 AM 64.2°F17.9°C 63.6°F17.6°C 98% Calm Calm -- 29.91 in1012.9 mb 0.00 in0.0 mm 0.00 in0.0 mm 0.00 in0.0 mm
03:44 AM 64.2°F17.9°C 63.6°F17.6°C 98% 0.3 mph SSE0.5 kmh SSE -- 29.92 in1013.2 mb 0.00 in0.0 mm 0.00 in0.0 mm 0.00 in0.0 mm
03:39 AM 64.2°F17.9°C 63.3°F17.4°C 97% 0.2 mph SSE0.3 kmh SSE -- 29.92 in1013.2 mb 0.00 in0.0 mm 0.00 in0.0 mm 0.00 in0.0 mm
03:34 AM 64.2°F17.9°C 63.6°F17.6°C 98% Calm Calm -- 29.93 in1013.5 mb 0.00 in0.0 mm 0.00 in0.0 mm 0.00 in0.0 mm
03:28 AM 64.0°F17.8°C 63.4°F17.4°C 98% 1.7 mph S2.7 kmh S -- 29.93 in1013.5 mb 0.00 in0.0 mm 0.00 in0.0 mm 0.00 in0.0 mm
03:23 AM 64.1°F17.8°C 63.2°F17.3°C 97% 0.9 mph SSE1.4 kmh SSE -- 29.92 in1013.2 mb 0.00 in0.0 mm 0.00 in0.0 mm 0.00 in0.0 mm
03:18 AM 64.2°F17.9°C 63.3°F17.4°C 97% Calm Calm -- 29.92 in1013.2 mb 0.00 in0.0 mm 0.00 in0.0 mm 0.00 in0.0 mm
03:12 AM 64.2°F17.9°C 63.3°F17.4°C 97% 0.9 mph SSE1.4 kmh SSE -- 29.93 in1013.5 mb 0.00 in0.0 mm 0.00 in0.0 mm 0.00 in0.0 mm
03:07 AM 64.4°F18.0°C 63.5°F17.5°C 97% Calm Calm -- 29.93 in1013.5 mb 0.00 in0.0 mm 0.00 in0.0 mm 0.00 in0.0 mm
03:01 AM 64.4°F18.0°C 63.5°F17.5°C 97% 0.7 mph S1.1 kmh S -- 29.93 in1013.5 mb 0.00 in0.0 mm 0.00 in0.0 mm 0.00 in0.0 mm
02:55 AM 64.4°F18.0°C 63.5°F17.5°C 97% Calm Calm -- 29.94 in1013.9 mb 0.00 in0.0 mm 0.00 in0.0 mm 0.00 in0.0 mm
02:50 AM 64.2°F17.9°C 63.3°F17.4°C 97% Calm Calm -- 29.94 in1013.9 mb 0.00 in0.0 mm 0.00 in0.0 mm 0.00 in0.0 mm
02:44 AM 64.2°F17.9°C 63.0°F17.2°C 96% Calm Calm -- 29.94 in1013.9 mb 0.00 in0.0 mm 0.00 in0.0 mm 0.00 in0.0 mm
02:39 AM 64.2°F17.9°C 63.0°F17.2°C 96% Calm Calm -- 29.94 in1013.9 mb 0.00 in0.0 mm 0.00 in0.0 mm 0.00 in0.0 mm
02:33 AM 64.4°F18.0°C 62.9°F17.2°C 95% 0.2 mph SSE0.3 kmh SSE -- 29.94 in1013.9 mb 0.00 in0.0 mm 0.00 in0.0 mm 0.00 in0.0 mm
02:27 AM 64.5°F18.1°C 63.3°F17.4°C 96% 0.1 mph SSE0.2 kmh SSE -- 29.94 in1013.9 mb 0.00 in0.0 mm 0.00 in0.0 mm 0.00 in0.0 mm
02:21 AM 64.7°F18.2°C 63.5°F17.5°C 96% 0.3 mph SSE0.5 kmh SSE -- 29.93 in1013.5 mb 0.00 in0.0 mm 0.00 in0.0 mm 0.00 in0.0 mm
02:15 AM 64.9°F18.3°C 63.4°F17.4°C 95% Calm Calm -- 29.93 in1013.5 mb 0.00 in0.0 mm 0.00 in0.0 mm 0.00 in0.0 mm
02:09 AM 65.0°F18.3°C 63.5°F17.5°C 95% Calm Calm -- 29.93 in1013.5 mb 0.00 in0.0 mm 0.00 in0.0 mm 0.00 in0.0 mm
02:03 AM 65.2°F18.4°C 63.4°F17.4°C 94% 0.2 mph SE0.3 kmh SE -- 29.93 in1013.5 mb 0.00 in0.0 mm 0.00 in0.0 mm 0.00 in0.0 mm
01:58 AM 65.2°F18.4°C 63.1°F17.3°C 93% 0.2 mph SSE0.3 kmh SSE -- 29.93 in1013.5 mb 0.00 in0.0 mm 0.00 in0.0 mm 0.00 in0.0 mm
01:52 AM 65.5°F18.6°C 63.7°F17.6°C 94% 0.2 mph S0.3 kmh S -- 29.94 in1013.9 mb 0.00 in0.0 mm 0.00 in0.0 mm 0.00 in0.0 mm
01:46 AM 65.7°F18.7°C 63.6°F17.6°C 93% 0.2 mph S0.3 kmh S -- 29.94 in1013.9 mb 0.00 in0.0 mm 0.00 in0.0 mm 0.00 in0.0 mm
01:41 AM 65.9°F18.8°C 63.8°F17.7°C 93% Calm Calm -- 29.94 in1013.9 mb 0.00 in0.0 mm 0.00 in0.0 mm 0.00 in0.0 mm
01:36 AM 66.2°F19.0°C 63.8°F17.7°C 92% Calm Calm -- 29.94 in1013.9 mb 0.00 in0.0 mm 0.00 in0.0 mm 0.00 in0.0 mm
01:30 AM 66.4°F19.1°C 63.7°F17.6°C 91% 0.6 mph SSE1.0 kmh SSE -- 29.95 in1014.2 mb 0.00 in0.0 mm 0.00 in0.0 mm 0.00 in0.0 mm
01:24 AM 66.6°F19.2°C 63.9°F17.7°C 91% 0.5 mph SSE0.8 kmh SSE -- 29.95 in1014.2 mb 0.00 in0.0 mm 0.00 in0.0 mm 0.00 in0.0 mm
01:18 AM 67.0°F19.4°C 64.3°F17.9°C 91% 0.8 mph SSE1.3 kmh SSE -- 29.95 in1014.2 mb 0.00 in0.0 mm 0.00 in0.0 mm 0.00 in0.0 mm
01:13 AM 67.2°F19.6°C 64.2°F17.9°C 90% 0.7 mph SSE1.1 kmh SSE -- 29.95 in1014.2 mb 0.00 in0.0 mm 0.00 in0.0 mm 0.00 in0.0 mm
01:07 AM 67.6°F19.8°C 64.2°F17.9°C 89% Calm Calm -- 29.95 in1014.2 mb 0.00 in0.0 mm 0.00 in0.0 mm 0.00 in0.0 mm
01:02 AM 67.7°F19.8°C 64.7°F18.2°C 90% 1.7 mph SSE2.7 kmh SSE -- 29.95 in1014.2 mb 0.00 in0.0 mm 0.00 in0.0 mm 0.00 in0.0 mm
12:56 AM 67.7°F19.8°C 64.7°F18.2°C 90% 1.6 mph S2.6 kmh S -- 29.95 in1014.2 mb 0.00 in0.0 mm 0.00 in0.0 mm 0.00 in0.0 mm
12:51 AM 67.7°F19.8°C 64.3°F17.9°C 89% 0.2 mph SSW0.3 kmh SSW -- 29.95 in1014.2 mb 0.00 in0.0 mm 0.00 in0.0 mm 0.00 in0.0 mm
12:45 AM 67.9°F19.9°C 64.5°F18.1°C 89% 1.2 mph S1.9 kmh S -- 29.96 in1014.6 mb 0.00 in0.0 mm 0.00 in0.0 mm 0.00 in0.0 mm
12:39 AM 68.0°F20.0°C 64.3°F17.9°C 88% 2.2 mph S3.5 kmh S -- 29.96 in1014.6 mb 0.00 in0.0 mm 0.00 in0.0 mm 0.00 in0.0 mm
12:34 AM 68.2°F20.1°C 64.2°F17.9°C 87% 3.5 mph S5.6 kmh S -- 29.95 in1014.2 mb 0.00 in0.0 mm 0.00 in0.0 mm 0.00 in0.0 mm
12:28 AM 68.5°F20.3°C 64.5°F18.1°C 87% 0.3 mph SE0.5 kmh SE -- 29.96 in1014.6 mb 0.00 in0.0 mm 0.00 in0.0 mm 0.00 in0.0 mm
12:23 AM 68.7°F20.4°C 64.3°F17.9°C 86% 2.7 mph S4.3 kmh S -- 29.96 in1014.6 mb 0.00 in0.0 mm 0.00 in0.0 mm 0.00 in0.0 mm
12:17 AM 69.0°F20.6°C 64.6°F18.1°C 86% 1.4 mph S2.3 kmh S -- 29.96 in1014.6 mb 0.00 in0.0 mm 0.00 in0.0 mm 0.00 in0.0 mm
12:11 AM 69.2°F20.7°C 64.2°F17.9°C 84% 1.0 mph SSE1.6 kmh SSE -- 29.96 in1014.6 mb 0.00 in0.0 mm 0.00 in0.0 mm 0.00 in0.0 mm
12:06 AM 69.5°F20.8°C 64.4°F18.0°C 84% 0.5 mph SSE0.8 kmh SSE -- 29.96 in1014.6 mb 0.00 in0.0 mm 0.00 in0.0 mm 0.00 in0.0 mm
12:00 AM 69.7°F20.9°C 64.6°F18.1°C 84% 1.6 mph SSW2.6 kmh SSW -- 29.96 in1014.6 mb 0.00 in0.0 mm 0.00 in0.0 mm 0.00 in0.0 mm